sensor_id;sensor_type;location;lat;lon;timestamp;temperature;humidity
22471;DHT22;11402;51.374;6.594;2023-01-15T00:00:58;8.00;99.90
22471;DHT22;11402;51.374;6.594;2023-01-15T00:03:24;7.90;99.90
22471;DHT22;11402;51.374;6.594;2023-01-15T00:05:49;7.80;99.90
22471;DHT22;11402;51.374;6.594;2023-01-15T00:08:15;7.80;99.90
22471;DHT22;11402;51.374;6.594;2023-01-15T00:10:41;7.90;99.90
22471;DHT22;11402;51.374;6.594;2023-01-15T00:13:06;7.90;99.90
22471;DHT22;11402;51.374;6.594;2023-01-15T00:15:32;7.90;99.90
22471;DHT22;11402;51.374;6.594;2023-01-15T00:17:57;8.00;99.90
22471;DHT22;11402;51.374;6.594;2023-01-15T00:20:23;7.90;99.90
22471;DHT22;11402;51.374;6.594;2023-01-15T00:22:48;8.10;99.90
22471;DHT22;11402;51.374;6.594;2023-01-15T00:25:14;8.10;99.90
22471;DHT22;11402;51.374;6.594;2023-01-15T00:27:58;7.80;99.90
22471;DHT22;11402;51.374;6.594;2023-01-15T00:30:24;7.50;99.90
22471;DHT22;11402;51.374;6.594;2023-01-15T00:32:49;7.50;99.90
22471;DHT22;11402;51.374;6.594;2023-01-15T00:35:20;7.60;99.90
22471;DHT22;11402;51.374;6.594;2023-01-15T00:37:46;7.90;99.90
22471;DHT22;11402;51.374;6.594;2023-01-15T00:40:13;8.10;99.90
22471;DHT22;11402;51.374;6.594;2023-01-15T00:42:39;8.10;99.90
22471;DHT22;11402;51.374;6.594;2023-01-15T00:45:06;8.10;99.90
22471;DHT22;11402;51.374;6.594;2023-01-15T00:47:36;7.90;99.90
22471;DHT22;11402;51.374;6.594;2023-01-15T00:50:03;8.00;99.90
22471;DHT22;11402;51.374;6.594;2023-01-15T00:52:30;8.00;99.90
22471;DHT22;11402;51.374;6.594;2023-01-15T00:54:55;7.90;99.90
22471;DHT22;11402;51.374;6.594;2023-01-15T00:57:21;7.80;99.90
22471;DHT22;11402;51.374;6.594;2023-01-15T00:59:46;7.90;99.90
22471;DHT22;11402;51.374;6.594;2023-01-15T01:02:12;7.90;99.90
22471;DHT22;11402;51.374;6.594;2023-01-15T01:04:37;7.70;99.90
22471;DHT22;11402;51.374;6.594;2023-01-15T01:07:03;7.70;99.90
22471;DHT22;11402;51.374;6.594;2023-01-15T01:09:29;7.80;99.90
22471;DHT22;11402;51.374;6.594;2023-01-15T01:11:54;7.80;99.90
22471;DHT22;11402;51.374;6.594;2023-01-15T01:14:20;7.90;99.90
22471;DHT22;11402;51.374;6.594;2023-01-15T01:16:45;7.80;99.90
22471;DHT22;11402;51.374;6.594;2023-01-15T01:19:21;7.70;99.90
22471;DHT22;11402;51.374;6.594;2023-01-15T01:21:47;7.80;99.90
22471;DHT22;11402;51.374;6.594;2023-01-15T01:24:16;7.70;99.90
22471;DHT22;11402;51.374;6.594;2023-01-15T01:26:42;7.70;99.90
22471;DHT22;11402;51.374;6.594;2023-01-15T01:29:11;7.80;99.90
22471;DHT22;11402;51.374;6.594;2023-01-15T01:31:37;7.70;99.90
22471;DHT22;11402;51.374;6.594;2023-01-15T01:34:02;7.70;99.90
22471;DHT22;11402;51.374;6.594;2023-01-15T01:36:33;7.80;99.90
22471;DHT22;11402;51.374;6.594;2023-01-15T01:39:00;7.70;99.90
22471;DHT22;11402;51.374;6.594;2023-01-15T01:41:26;7.80;99.90
22471;DHT22;11402;51.374;6.594;2023-01-15T01:44:04;7.70;99.90
22471;DHT22;11402;51.374;6.594;2023-01-15T01:46:31;7.60;99.90
22471;DHT22;11402;51.374;6.594;2023-01-15T01:49:10;7.50;99.90
22471;DHT22;11402;51.374;6.594;2023-01-15T01:51:43;7.50;99.90
22471;DHT22;11402;51.374;6.594;2023-01-15T01:54:12;7.80;99.90
22471;DHT22;11402;51.374;6.594;2023-01-15T01:56:38;7.70;99.90
22471;DHT22;11402;51.374;6.594;2023-01-15T01:59:05;7.80;99.90
22471;DHT22;11402;51.374;6.594;2023-01-15T02:01:31;7.90;99.90
22471;DHT22;11402;51.374;6.594;2023-01-15T02:03:57;7.70;99.90
22471;DHT22;11402;51.374;6.594;2023-01-15T02:06:25;7.70;99.90
22471;DHT22;11402;51.374;6.594;2023-01-15T02:08:51;7.80;99.90
22471;DHT22;11402;51.374;6.594;2023-01-15T02:11:20;7.80;99.90
22471;DHT22;11402;51.374;6.594;2023-01-15T02:14:09;7.80;99.90
22471;DHT22;11402;51.374;6.594;2023-01-15T02:16:47;7.80;99.90
22471;DHT22;11402;51.374;6.594;2023-01-15T02:19:18;7.90;99.90
22471;DHT22;11402;51.374;6.594;2023-01-15T02:27:19;7.90;99.90
22471;DHT22;11402;51.374;6.594;2023-01-15T02:30:09;7.60;99.90
22471;DHT22;11402;51.374;6.594;2023-01-15T02:32:49;7.50;99.90
22471;DHT22;11402;51.374;6.594;2023-01-15T02:35:37;7.40;99.90
22471;DHT22;11402;51.374;6.594;2023-01-15T02:38:07;7.50;99.90
22471;DHT22;11402;51.374;6.594;2023-01-15T02:40:35;7.60;99.90
22471;DHT22;11402;51.374;6.594;2023-01-15T02:43:02;7.60;99.90
22471;DHT22;11402;51.374;6.594;2023-01-15T02:45:32;7.70;99.90
22471;DHT22;11402;51.374;6.594;2023-01-15T02:48:02;7.70;99.90
22471;DHT22;11402;51.374;6.594;2023-01-15T02:50:40;7.80;99.90
22471;DHT22;11402;51.374;6.594;2023-01-15T02:53:09;7.50;99.90
22471;DHT22;11402;51.374;6.594;2023-01-15T02:55:48;7.70;99.90
22471;DHT22;11402;51.374;6.594;2023-01-15T02:58:22;7.70;99.90
22471;DHT22;11402;51.374;6.594;2023-01-15T03:00:51;7.70;99.90
22471;DHT22;11402;51.374;6.594;2023-01-15T03:03:41;7.70;99.90
22471;DHT22;11402;51.374;6.594;2023-01-15T03:06:32;7.80;99.90
22471;DHT22;11402;51.374;6.594;2023-01-15T03:08:59;7.80;99.90
22471;DHT22;11402;51.374;6.594;2023-01-15T03:11:26;7.70;99.90
22471;DHT22;11402;51.374;6.594;2023-01-15T03:17:12;7.80;99.90
22471;DHT22;11402;51.374;6.594;2023-01-15T03:19:44;7.70;99.90
22471;DHT22;11402;51.374;6.594;2023-01-15T03:27:13;7.40;99.90
22471;DHT22;11402;51.374;6.594;2023-01-15T03:29:46;7.30;99.90
22471;DHT22;11402;51.374;6.594;2023-01-15T03:32:13;7.30;99.90
22471;DHT22;11402;51.374;6.594;2023-01-15T03:34:52;7.30;99.90
22471;DHT22;11402;51.374;6.594;2023-01-15T03:37:19;7.30;99.90
22471;DHT22;11402;51.374;6.594;2023-01-15T03:39:46;7.40;99.90
22471;DHT22;11402;51.374;6.594;2023-01-15T03:42:25;7.40;99.90
22471;DHT22;11402;51.374;6.594;2023-01-15T03:45:17;7.50;99.90
22471;DHT22;11402;51.374;6.594;2023-01-15T03:48:04;7.60;99.90
22471;DHT22;11402;51.374;6.594;2023-01-15T03:50:49;7.50;99.90
22471;DHT22;11402;51.374;6.594;2023-01-15T03:53:45;7.50;99.90
22471;DHT22;11402;51.374;6.594;2023-01-15T03:59:12;7.40;99.90
22471;DHT22;11402;51.374;6.594;2023-01-15T04:01:43;7.60;99.90
22471;DHT22;11402;51.374;6.594;2023-01-15T04:04:10;7.60;99.90
22471;DHT22;11402;51.374;6.594;2023-01-15T04:06:38;7.60;99.90
22471;DHT22;11402;51.374;6.594;2023-01-15T04:09:07;7.70;99.90
22471;DHT22;11402;51.374;6.594;2023-01-15T04:11:33;7.60;99.90
22471;DHT22;11402;51.374;6.594;2023-01-15T04:13:58;7.60;99.90
22471;DHT22;11402;51.374;6.594;2023-01-15T04:16:27;7.60;99.90
22471;DHT22;11402;51.374;6.594;2023-01-15T04:18:53;7.60;99.90
22471;DHT22;11402;51.374;6.594;2023-01-15T04:21:19;7.60;99.90
22471;DHT22;11402;51.374;6.594;2023-01-15T04:23:45;7.60;99.90
22471;DHT22;11402;51.374;6.594;2023-01-15T04:26:11;7.70;99.90
22471;DHT22;11402;51.374;6.594;2023-01-15T04:28:37;7.50;99.90
22471;DHT22;11402;51.374;6.594;2023-01-15T04:31:03;7.40;99.90
22471;DHT22;11402;51.374;6.594;2023-01-15T04:33:28;7.40;99.90
22471;DHT22;11402;51.374;6.594;2023-01-15T04:35:54;7.50;99.90
22471;DHT22;11402;51.374;6.594;2023-01-15T04:38:19;7.50;99.90
22471;DHT22;11402;51.374;6.594;2023-01-15T04:40:45;7.60;99.90
22471;DHT22;11402;51.374;6.594;2023-01-15T04:43:29;7.70;99.90
22471;DHT22;11402;51.374;6.594;2023-01-15T04:46:13;7.70;99.90
22471;DHT22;11402;51.374;6.594;2023-01-15T04:48:39;7.70;99.90
22471;DHT22;11402;51.374;6.594;2023-01-15T04:51:06;7.80;99.90
22471;DHT22;11402;51.374;6.594;2023-01-15T04:53:32;7.80;99.90
22471;DHT22;11402;51.374;6.594;2023-01-15T04:56:02;7.70;99.90
22471;DHT22;11402;51.374;6.594;2023-01-15T04:58:28;7.60;99.90
22471;DHT22;11402;51.374;6.594;2023-01-15T05:00:53;7.70;99.90
22471;DHT22;11402;51.374;6.594;2023-01-15T05:03:19;7.70;99.90
22471;DHT22;11402;51.374;6.594;2023-01-15T05:05:45;7.60;99.90
22471;DHT22;11402;51.374;6.594;2023-01-15T05:08:10;7.70;99.90
22471;DHT22;11402;51.374;6.594;2023-01-15T05:10:36;7.70;99.90
22471;DHT22;11402;51.374;6.594;2023-01-15T05:13:01;7.70;99.90
22471;DHT22;11402;51.374;6.594;2023-01-15T05:15:27;7.70;99.90
22471;DHT22;11402;51.374;6.594;2023-01-15T05:17:52;7.70;99.90
22471;DHT22;11402;51.374;6.594;2023-01-15T05:20:18;7.60;99.90
22471;DHT22;11402;51.374;6.594;2023-01-15T05:22:43;7.60;99.90
22471;DHT22;11402;51.374;6.594;2023-01-15T05:25:09;7.60;99.90
22471;DHT22;11402;51.374;6.594;2023-01-15T05:27:34;7.60;99.90
22471;DHT22;11402;51.374;6.594;2023-01-15T05:30:00;7.60;99.90
22471;DHT22;11402;51.374;6.594;2023-01-15T05:32:25;7.60;99.90
22471;DHT22;11402;51.374;6.594;2023-01-15T05:34:51;7.70;99.90
22471;DHT22;11402;51.374;6.594;2023-01-15T05:37:17;7.80;99.90
22471;DHT22;11402;51.374;6.594;2023-01-15T05:39:42;7.70;99.90
22471;DHT22;11402;51.374;6.594;2023-01-15T05:42:08;7.70;99.90
22471;DHT22;11402;51.374;6.594;2023-01-15T05:44:33;7.70;99.90
22471;DHT22;11402;51.374;6.594;2023-01-15T05:47:00;7.80;99.90
22471;DHT22;11402;51.374;6.594;2023-01-15T05:49:32;7.70;99.90
22471;DHT22;11402;51.374;6.594;2023-01-15T05:51:59;7.70;99.90
22471;DHT22;11402;51.374;6.594;2023-01-15T05:54:28;7.70;99.90
22471;DHT22;11402;51.374;6.594;2023-01-15T05:56:54;7.80;99.90
22471;DHT22;11402;51.374;6.594;2023-01-15T05:59:21;7.80;99.90
22471;DHT22;11402;51.374;6.594;2023-01-15T06:01:48;7.80;99.90
22471;DHT22;11402;51.374;6.594;2023-01-15T06:04:14;7.70;99.90
22471;DHT22;11402;51.374;6.594;2023-01-15T06:06:42;7.70;99.90
22471;DHT22;11402;51.374;6.594;2023-01-15T06:09:08;7.70;99.90
22471;DHT22;11402;51.374;6.594;2023-01-15T06:11:33;7.70;99.90
22471;DHT22;11402;51.374;6.594;2023-01-15T06:13:59;7.80;99.90
22471;DHT22;11402;51.374;6.594;2023-01-15T06:16:25;7.60;99.90
22471;DHT22;11402;51.374;6.594;2023-01-15T06:18:51;7.60;99.90
22471;DHT22;11402;51.374;6.594;2023-01-15T06:21:17;7.70;99.90
22471;DHT22;11402;51.374;6.594;2023-01-15T06:23:43;7.70;99.90
22471;DHT22;11402;51.374;6.594;2023-01-15T06:26:14;7.70;99.90
22471;DHT22;11402;51.374;6.594;2023-01-15T06:28:41;7.70;99.90
22471;DHT22;11402;51.374;6.594;2023-01-15T06:31:13;7.70;99.90
22471;DHT22;11402;51.374;6.594;2023-01-15T06:33:38;7.70;99.90
22471;DHT22;11402;51.374;6.594;2023-01-15T06:36:06;7.70;99.90
22471;DHT22;11402;51.374;6.594;2023-01-15T06:38:32;7.70;99.90
22471;DHT22;11402;51.374;6.594;2023-01-15T06:40:59;7.80;99.90
22471;DHT22;11402;51.374;6.594;2023-01-15T06:43:25;7.60;99.90
22471;DHT22;11402;51.374;6.594;2023-01-15T06:46:09;7.70;99.90
22471;DHT22;11402;51.374;6.594;2023-01-15T06:48:54;7.70;99.90
22471;DHT22;11402;51.374;6.594;2023-01-15T06:51:19;7.60;99.90
22471;DHT22;11402;51.374;6.594;2023-01-15T06:53:46;7.60;99.90
22471;DHT22;11402;51.374;6.594;2023-01-15T06:56:15;7.60;99.90
22471;DHT22;11402;51.374;6.594;2023-01-15T06:58:41;7.50;99.90
22471;DHT22;11402;51.374;6.594;2023-01-15T07:01:14;7.60;99.90
22471;DHT22;11402;51.374;6.594;2023-01-15T07:03:40;7.60;99.90
22471;DHT22;11402;51.374;6.594;2023-01-15T07:06:11;7.60;99.90
22471;DHT22;11402;51.374;6.594;2023-01-15T07:08:38;7.70;99.90
22471;DHT22;11402;51.374;6.594;2023-01-15T07:11:06;7.70;99.90
22471;DHT22;11402;51.374;6.594;2023-01-15T07:13:33;7.70;99.90
22471;DHT22;11402;51.374;6.594;2023-01-15T07:16:00;7.60;99.90
22471;DHT22;11402;51.374;6.594;2023-01-15T07:18:27;7.70;99.90
22471;DHT22;11402;51.374;6.594;2023-01-15T07:20:57;7.70;99.90
22471;DHT22;11402;51.374;6.594;2023-01-15T07:23:24;7.60;99.90
22471;DHT22;11402;51.374;6.594;2023-01-15T07:25:52;7.60;99.90
22471;DHT22;11402;51.374;6.594;2023-01-15T07:28:18;7.60;99.90
22471;DHT22;11402;51.374;6.594;2023-01-15T07:30:43;7.60;99.90
22471;DHT22;11402;51.374;6.594;2023-01-15T07:33:09;7.60;99.90
22471;DHT22;11402;51.374;6.594;2023-01-15T07:35:35;7.50;99.90
22471;DHT22;11402;51.374;6.594;2023-01-15T07:38:01;7.60;99.90
22471;DHT22;11402;51.374;6.594;2023-01-15T07:40:27;7.50;99.90
22471;DHT22;11402;51.374;6.594;2023-01-15T07:42:53;7.60;99.90
22471;DHT22;11402;51.374;6.594;2023-01-15T07:45:41;7.50;99.90
22471;DHT22;11402;51.374;6.594;2023-01-15T07:48:27;7.50;99.90
22471;DHT22;11402;51.374;6.594;2023-01-15T07:51:11;7.50;99.90
22471;DHT22;11402;51.374;6.594;2023-01-15T07:53:36;7.40;99.90
22471;DHT22;11402;51.374;6.594;2023-01-15T07:56:02;7.30;99.90
22471;DHT22;11402;51.374;6.594;2023-01-15T07:58:27;7.40;99.90
22471;DHT22;11402;51.374;6.594;2023-01-15T08:00:53;7.50;99.90
22471;DHT22;11402;51.374;6.594;2023-01-15T08:03:19;7.30;99.90
22471;DHT22;11402;51.374;6.594;2023-01-15T08:05:44;7.40;99.90
22471;DHT22;11402;51.374;6.594;2023-01-15T08:08:14;7.40;99.90
22471;DHT22;11402;51.374;6.594;2023-01-15T08:10:39;7.40;99.90
22471;DHT22;11402;51.374;6.594;2023-01-15T08:13:25;7.40;99.90
22471;DHT22;11402;51.374;6.594;2023-01-15T08:16:10;7.40;99.90
22471;DHT22;11402;51.374;6.594;2023-01-15T08:18:36;7.40;99.90
22471;DHT22;11402;51.374;6.594;2023-01-15T08:21:01;7.40;99.90
22471;DHT22;11402;51.374;6.594;2023-01-15T08:23:27;7.30;99.90
22471;DHT22;11402;51.374;6.594;2023-01-15T08:25:52;7.30;99.90
22471;DHT22;11402;51.374;6.594;2023-01-15T08:28:18;7.30;99.90
22471;DHT22;11402;51.374;6.594;2023-01-15T08:30:43;7.30;99.90
22471;DHT22;11402;51.374;6.594;2023-01-15T08:33:09;7.30;99.90
22471;DHT22;11402;51.374;6.594;2023-01-15T08:35:35;7.30;99.90
22471;DHT22;11402;51.374;6.594;2023-01-15T08:38:07;7.30;99.90
22471;DHT22;11402;51.374;6.594;2023-01-15T08:40:33;7.20;99.90
22471;DHT22;11402;51.374;6.594;2023-01-15T08:43:00;7.20;99.90
22471;DHT22;11402;51.374;6.594;2023-01-15T08:45:26;7.20;99.90
22471;DHT22;11402;51.374;6.594;2023-01-15T08:47:55;7.20;99.90
22471;DHT22;11402;51.374;6.594;2023-01-15T08:50:22;7.20;99.90
22471;DHT22;11402;51.374;6.594;2023-01-15T08:52:48;7.20;99.90
22471;DHT22;11402;51.374;6.594;2023-01-15T08:55:13;7.00;99.90
22471;DHT22;11402;51.374;6.594;2023-01-15T08:57:39;7.00;99.90
22471;DHT22;11402;51.374;6.594;2023-01-15T09:00:05;7.00;99.90
22471;DHT22;11402;51.374;6.594;2023-01-15T09:02:31;7.00;99.90
22471;DHT22;11402;51.374;6.594;2023-01-15T09:04:57;7.10;99.90
22471;DHT22;11402;51.374;6.594;2023-01-15T09:07:22;7.00;99.90
22471;DHT22;11402;51.374;6.594;2023-01-15T09:09:48;7.10;99.90
22471;DHT22;11402;51.374;6.594;2023-01-15T09:12:14;6.90;99.90
22471;DHT22;11402;51.374;6.594;2023-01-15T09:14:39;6.80;99.90
22471;DHT22;11402;51.374;6.594;2023-01-15T09:17:05;6.90;99.90
22471;DHT22;11402;51.374;6.594;2023-01-15T09:19:30;6.90;99.90
22471;DHT22;11402;51.374;6.594;2023-01-15T09:21:56;7.00;99.90
22471;DHT22;11402;51.374;6.594;2023-01-15T09:24:21;7.00;99.90
22471;DHT22;11402;51.374;6.594;2023-01-15T09:26:47;7.00;99.90
22471;DHT22;11402;51.374;6.594;2023-01-15T09:29:13;6.90;99.90
22471;DHT22;11402;51.374;6.594;2023-01-15T09:31:38;7.00;99.90
22471;DHT22;11402;51.374;6.594;2023-01-15T09:34:04;7.00;99.90
22471;DHT22;11402;51.374;6.594;2023-01-15T09:36:32;7.10;99.90
22471;DHT22;11402;51.374;6.594;2023-01-15T09:38:59;7.10;99.90
22471;DHT22;11402;51.374;6.594;2023-01-15T09:41:33;7.10;1.00
22471;DHT22;11402;51.374;6.594;2023-01-15T09:47:41;7.30;1.00
22471;DHT22;11402;51.374;6.594;2023-01-15T09:55:45;7.40;1.00
22471;DHT22;11402;51.374;6.594;2023-01-15T09:58:13;7.40;1.00
22471;DHT22;11402;51.374;6.594;2023-01-15T10:00:48;7.50;1.00
22471;DHT22;11402;51.374;6.594;2023-01-15T10:11:38;7.80;1.00
22471;DHT22;11402;51.374;6.594;2023-01-15T10:17:24;7.60;1.00
22471;DHT22;11402;51.374;6.594;2023-01-15T10:19:51;7.60;1.00
22471;DHT22;11402;51.374;6.594;2023-01-15T10:24:57;7.60;1.00
22471;DHT22;11402;51.374;6.594;2023-01-15T10:27:28;7.60;1.00
22471;DHT22;11402;51.374;6.594;2023-01-15T10:32:32;7.60;1.00
22471;DHT22;11402;51.374;6.594;2023-01-15T10:35:18;7.70;1.00
22471;DHT22;11402;51.374;6.594;2023-01-15T10:41:06;7.80;1.00
22471;DHT22;11402;51.374;6.594;2023-01-15T10:46:27;7.70;1.00
22471;DHT22;11402;51.374;6.594;2023-01-15T10:49:14;7.90;1.00
22471;DHT22;11402;51.374;6.594;2023-01-15T10:51:53;8.00;1.00
22471;DHT22;11402;51.374;6.594;2023-01-15T10:54:34;8.00;1.00
22471;DHT22;11402;51.374;6.594;2023-01-15T10:57:20;8.10;1.00
22471;DHT22;11402;51.374;6.594;2023-01-15T10:59:54;8.10;1.00
22471;DHT22;11402;51.374;6.594;2023-01-15T11:04:58;8.30;1.00
22471;DHT22;11402;51.374;6.594;2023-01-15T11:10:02;8.30;1.00
22471;DHT22;11402;51.374;6.594;2023-01-15T11:12:28;8.30;1.00
22471;DHT22;11402;51.374;6.594;2023-01-15T11:15:27;8.30;1.00
22471;DHT22;11402;51.374;6.594;2023-01-15T11:18:23;8.30;1.00
22471;DHT22;11402;51.374;6.594;2023-01-15T11:21:16;8.30;1.00
22471;DHT22;11402;51.374;6.594;2023-01-15T11:23:43;8.10;1.00
22471;DHT22;11402;51.374;6.594;2023-01-15T11:26:15;8.10;1.00
22471;DHT22;11402;51.374;6.594;2023-01-15T11:28:42;8.30;1.00
22471;DHT22;11402;51.374;6.594;2023-01-15T11:31:10;8.40;1.00
22471;DHT22;11402;51.374;6.594;2023-01-15T11:33:36;8.30;99.90
22471;DHT22;11402;51.374;6.594;2023-01-15T11:36:05;8.30;1.00
22471;DHT22;11402;51.374;6.594;2023-01-15T11:38:48;8.40;1.00
22471;DHT22;11402;51.374;6.594;2023-01-15T11:43:42;8.30;1.00
22471;DHT22;11402;51.374;6.594;2023-01-15T11:46:36;8.30;1.00
22471;DHT22;11402;51.374;6.594;2023-01-15T11:49:20;8.10;1.00
22471;DHT22;11402;51.374;6.594;2023-01-15T11:52:08;8.20;99.90
22471;DHT22;11402;51.374;6.594;2023-01-15T11:54:43;8.20;1.00
22471;DHT22;11402;51.374;6.594;2023-01-15T11:57:10;8.20;1.00
22471;DHT22;11402;51.374;6.594;2023-01-15T11:59:36;8.20;99.90
22471;DHT22;11402;51.374;6.594;2023-01-15T12:02:16;8.20;1.00
22471;DHT22;11402;51.374;6.594;2023-01-15T12:04:52;8.20;99.90
22471;DHT22;11402;51.374;6.594;2023-01-15T12:07:19;8.30;99.90
22471;DHT22;11402;51.374;6.594;2023-01-15T12:10:00;8.20;99.90
22471;DHT22;11402;51.374;6.594;2023-01-15T12:12:41;8.20;1.00
22471;DHT22;11402;51.374;6.594;2023-01-15T12:21:25;8.40;99.90
22471;DHT22;11402;51.374;6.594;2023-01-15T12:27:19;8.30;99.90
22471;DHT22;11402;51.374;6.594;2023-01-15T12:32:21;8.10;99.90
22471;DHT22;11402;51.374;6.594;2023-01-15T12:37:36;8.10;99.90
22471;DHT22;11402;51.374;6.594;2023-01-15T12:40:19;8.10;99.90
22471;DHT22;11402;51.374;6.594;2023-01-15T12:42:49;8.20;99.90
22471;DHT22;11402;51.374;6.594;2023-01-15T12:45:45;8.30;99.90
22471;DHT22;11402;51.374;6.594;2023-01-15T12:48:20;8.30;99.90
22471;DHT22;11402;51.374;6.594;2023-01-15T12:50:53;8.30;99.90
22471;DHT22;11402;51.374;6.594;2023-01-15T12:53:29;8.20;99.90
22471;DHT22;11402;51.374;6.594;2023-01-15T12:56:00;8.20;99.90
22471;DHT22;11402;51.374;6.594;2023-01-15T13:04:15;8.20;99.90
22471;DHT22;11402;51.374;6.594;2023-01-15T13:06:49;8.20;99.90
22471;DHT22;11402;51.374;6.594;2023-01-15T13:12:15;8.20;99.90
22471;DHT22;11402;51.374;6.594;2023-01-15T13:14:42;8.20;99.90
22471;DHT22;11402;51.374;6.594;2023-01-15T13:17:25;8.10;99.90
22471;DHT22;11402;51.374;6.594;2023-01-15T13:20:08;8.20;99.90
22471;DHT22;11402;51.374;6.594;2023-01-15T13:22:43;8.20;1.00
22471;DHT22;11402;51.374;6.594;2023-01-15T13:33:43;8.10;99.90
22471;DHT22;11402;51.374;6.594;2023-01-15T13:36:16;8.20;99.90
22471;DHT22;11402;51.374;6.594;2023-01-15T13:38:44;8.20;99.90
22471;DHT22;11402;51.374;6.594;2023-01-15T13:41:17;8.10;99.90
22471;DHT22;11402;51.374;6.594;2023-01-15T13:44:04;8.20;99.90
22471;DHT22;11402;51.374;6.594;2023-01-15T13:46:29;8.20;99.90
22471;DHT22;11402;51.374;6.594;2023-01-15T13:48:55;8.10;99.90
22471;DHT22;11402;51.374;6.594;2023-01-15T13:51:28;8.10;99.90
22471;DHT22;11402;51.374;6.594;2023-01-15T13:53:55;8.20;99.90
22471;DHT22;11402;51.374;6.594;2023-01-15T13:56:31;8.20;99.90
22471;DHT22;11402;51.374;6.594;2023-01-15T13:58:59;8.20;99.90
22471;DHT22;11402;51.374;6.594;2023-01-15T14:01:36;8.10;99.90
22471;DHT22;11402;51.374;6.594;2023-01-15T14:06:50;8.10;99.90
22471;DHT22;11402;51.374;6.594;2023-01-15T14:18:05;8.10;99.90
22471;DHT22;11402;51.374;6.594;2023-01-15T14:34:10;8.20;99.90
22471;DHT22;11402;51.374;6.594;2023-01-15T14:36:50;8.20;99.90
22471;DHT22;11402;51.374;6.594;2023-01-15T14:39:29;8.10;99.90
22471;DHT22;11402;51.374;6.594;2023-01-15T14:42:01;8.10;99.90
22471;DHT22;11402;51.374;6.594;2023-01-15T14:44:55;8.10;99.90
22471;DHT22;11402;51.374;6.594;2023-01-15T14:47:35;8.00;99.90
22471;DHT22;11402;51.374;6.594;2023-01-15T14:50:20;8.00;99.90
22471;DHT22;11402;51.374;6.594;2023-01-15T14:52:48;8.10;99.90
22471;DHT22;11402;51.374;6.594;2023-01-15T14:55:14;8.10;99.90
22471;DHT22;11402;51.374;6.594;2023-01-15T14:57:51;8.10;99.90
22471;DHT22;11402;51.374;6.594;2023-01-15T15:00:19;8.10;99.90
22471;DHT22;11402;51.374;6.594;2023-01-15T15:02:47;8.10;99.90
22471;DHT22;11402;51.374;6.594;2023-01-15T15:05:19;8.10;99.90
22471;DHT22;11402;51.374;6.594;2023-01-15T15:07:48;8.10;99.90
22471;DHT22;11402;51.374;6.594;2023-01-15T15:10:32;8.10;99.90
22471;DHT22;11402;51.374;6.594;2023-01-15T15:13:01;8.10;99.90
22471;DHT22;11402;51.374;6.594;2023-01-15T15:18:15;8.00;99.90
22471;DHT22;11402;51.374;6.594;2023-01-15T15:20:54;8.10;99.90
22471;DHT22;11402;51.374;6.594;2023-01-15T15:26:28;8.00;99.90
22471;DHT22;11402;51.374;6.594;2023-01-15T15:29:09;8.00;99.90
22471;DHT22;11402;51.374;6.594;2023-01-15T15:31:51;8.10;99.90
22471;DHT22;11402;51.374;6.594;2023-01-15T15:34:28;8.00;99.90
22471;DHT22;11402;51.374;6.594;2023-01-15T15:36:55;8.00;99.90
22471;DHT22;11402;51.374;6.594;2023-01-15T15:39:46;8.00;99.90
22471;DHT22;11402;51.374;6.594;2023-01-15T15:42:30;8.00;99.90
22471;DHT22;11402;51.374;6.594;2023-01-15T15:45:22;8.10;99.90
22471;DHT22;11402;51.374;6.594;2023-01-15T15:48:29;8.00;99.90
22471;DHT22;11402;51.374;6.594;2023-01-15T15:51:31;8.10;99.90
22471;DHT22;11402;51.374;6.594;2023-01-15T15:57:12;7.90;99.90
22471;DHT22;11402;51.374;6.594;2023-01-15T15:59:47;7.90;99.90
22471;DHT22;11402;51.374;6.594;2023-01-15T16:02:15;7.80;99.90
22471;DHT22;11402;51.374;6.594;2023-01-15T16:07:24;7.80;99.90
22471;DHT22;11402;51.374;6.594;2023-01-15T16:10:27;7.80;99.90
22471;DHT22;11402;51.374;6.594;2023-01-15T16:12:52;7.90;99.90
22471;DHT22;11402;51.374;6.594;2023-01-15T16:15:24;7.80;99.90
22471;DHT22;11402;51.374;6.594;2023-01-15T16:17:53;7.80;99.90
22471;DHT22;11402;51.374;6.594;2023-01-15T16:20:19;7.80;99.90
22471;DHT22;11402;51.374;6.594;2023-01-15T16:25:29;7.80;99.90
22471;DHT22;11402;51.374;6.594;2023-01-15T16:27:56;7.80;99.90
22471;DHT22;11402;51.374;6.594;2023-01-15T16:30:23;7.80;99.90
22471;DHT22;11402;51.374;6.594;2023-01-15T16:32:49;7.80;99.90
22471;DHT22;11402;51.374;6.594;2023-01-15T16:35:20;7.70;99.90
22471;DHT22;11402;51.374;6.594;2023-01-15T16:37:52;7.80;99.90
22471;DHT22;11402;51.374;6.594;2023-01-15T16:40:31;8.00;99.90
22471;DHT22;11402;51.374;6.594;2023-01-15T16:45:29;8.00;99.90
22471;DHT22;11402;51.374;6.594;2023-01-15T16:48:13;7.80;99.90
22471;DHT22;11402;51.374;6.594;2023-01-15T16:50:48;7.70;99.90
22471;DHT22;11402;51.374;6.594;2023-01-15T16:53:38;7.80;99.90
22471;DHT22;11402;51.374;6.594;2023-01-15T16:56:05;7.80;99.90
22471;DHT22;11402;51.374;6.594;2023-01-15T16:58:36;7.80;99.90
22471;DHT22;11402;51.374;6.594;2023-01-15T17:01:31;7.80;99.90
22471;DHT22;11402;51.374;6.594;2023-01-15T17:03:58;7.80;99.90
22471;DHT22;11402;51.374;6.594;2023-01-15T17:06:25;7.70;99.90
22471;DHT22;11402;51.374;6.594;2023-01-15T17:08:53;7.80;99.90
22471;DHT22;11402;51.374;6.594;2023-01-15T17:11:23;7.80;99.90
22471;DHT22;11402;51.374;6.594;2023-01-15T17:13:49;7.80;99.90
22471;DHT22;11402;51.374;6.594;2023-01-15T17:16:17;7.60;99.90
22471;DHT22;11402;51.374;6.594;2023-01-15T17:18:43;7.60;99.90
22471;DHT22;11402;51.374;6.594;2023-01-15T17:21:21;7.70;99.90
22471;DHT22;11402;51.374;6.594;2023-01-15T17:23:52;7.70;99.90
22471;DHT22;11402;51.374;6.594;2023-01-15T17:26:20;7.70;99.90
22471;DHT22;11402;51.374;6.594;2023-01-15T17:28:47;7.70;99.90
22471;DHT22;11402;51.374;6.594;2023-01-15T17:31:29;7.80;99.90
22471;DHT22;11402;51.374;6.594;2023-01-15T17:33:58;7.80;99.90
22471;DHT22;11402;51.374;6.594;2023-01-15T17:36:24;7.80;99.90
22471;DHT22;11402;51.374;6.594;2023-01-15T17:38:50;7.80;99.90
22471;DHT22;11402;51.374;6.594;2023-01-15T17:41:17;7.90;99.90
22471;DHT22;11402;51.374;6.594;2023-01-15T17:43:43;7.70;99.90
22471;DHT22;11402;51.374;6.594;2023-01-15T17:46:09;7.70;99.90
22471;DHT22;11402;51.374;6.594;2023-01-15T17:48:35;7.70;99.90
22471;DHT22;11402;51.374;6.594;2023-01-15T17:51:05;7.70;99.90
22471;DHT22;11402;51.374;6.594;2023-01-15T17:53:33;7.80;99.90
22471;DHT22;11402;51.374;6.594;2023-01-15T17:56:01;7.70;99.90
22471;DHT22;11402;51.374;6.594;2023-01-15T17:58:45;7.70;99.90
22471;DHT22;11402;51.374;6.594;2023-01-15T18:01:33;7.70;99.90
22471;DHT22;11402;51.374;6.594;2023-01-15T18:04:24;7.70;99.90
22471;DHT22;11402;51.374;6.594;2023-01-15T18:07:11;7.70;99.90
22471;DHT22;11402;51.374;6.594;2023-01-15T18:09:37;7.70;99.90
22471;DHT22;11402;51.374;6.594;2023-01-15T18:12:03;7.80;99.90
22471;DHT22;11402;51.374;6.594;2023-01-15T18:14:29;7.90;99.90
22471;DHT22;11402;51.374;6.594;2023-01-15T18:16:55;7.80;99.90
22471;DHT22;11402;51.374;6.594;2023-01-15T18:19:20;7.80;99.90
22471;DHT22;11402;51.374;6.594;2023-01-15T18:21:46;7.80;99.90